sensor_id;sensor_type;location;lat;lon;timestamp;P1;durP1;ratioP1;P2;durP2;ratioP2
19812;SDS011;10066;48.108;11.448;2024-01-15T00:00:23;6.43;;;3.60;;
19812;SDS011;10066;48.108;11.448;2024-01-15T00:02:50;6.53;;;3.90;;
19812;SDS011;10066;48.108;11.448;2024-01-15T00:05:17;5.67;;;3.80;;
19812;SDS011;10066;48.108;11.448;2024-01-15T00:07:44;9.07;;;4.13;;
19812;SDS011;10066;48.108;11.448;2024-01-15T00:10:11;6.13;;;3.80;;
19812;SDS011;10066;48.108;11.448;2024-01-15T00:12:38;7.47;;;3.77;;
19812;SDS011;10066;48.108;11.448;2024-01-15T00:15:07;6.43;;;4.07;;
19812;SDS011;10066;48.108;11.448;2024-01-15T00:17:35;7.60;;;4.27;;
19812;SDS011;10066;48.108;11.448;2024-01-15T00:20:02;7.13;;;4.13;;
19812;SDS011;10066;48.108;11.448;2024-01-15T00:22:30;7.20;;;4.40;;
19812;SDS011;10066;48.108;11.448;2024-01-15T00:24:57;7.43;;;4.20;;
19812;SDS011;10066;48.108;11.448;2024-01-15T00:27:24;7.90;;;4.50;;
19812;SDS011;10066;48.108;11.448;2024-01-15T00:29:51;7.03;;;4.43;;
19812;SDS011;10066;48.108;11.448;2024-01-15T00:32:20;6.53;;;4.07;;
19812;SDS011;10066;48.108;11.448;2024-01-15T00:34:48;10.00;;;5.30;;
19812;SDS011;10066;48.108;11.448;2024-01-15T00:37:15;8.07;;;4.70;;
19812;SDS011;10066;48.108;11.448;2024-01-15T00:39:43;10.70;;;5.87;;
19812;SDS011;10066;48.108;11.448;2024-01-15T00:42:10;11.13;;;5.67;;
19812;SDS011;10066;48.108;11.448;2024-01-15T00:44:37;12.73;;;6.07;;
19812;SDS011;10066;48.108;11.448;2024-01-15T00:47:07;8.60;;;5.90;;
19812;SDS011;10066;48.108;11.448;2024-01-15T00:49:36;9.03;;;5.50;;
19812;SDS011;10066;48.108;11.448;2024-01-15T00:52:03;9.53;;;5.03;;
19812;SDS011;10066;48.108;11.448;2024-01-15T00:54:30;12.77;;;6.97;;
19812;SDS011;10066;48.108;11.448;2024-01-15T00:56:57;11.80;;;5.73;;
19812;SDS011;10066;48.108;11.448;2024-01-15T00:59:24;10.43;;;4.73;;
19812;SDS011;10066;48.108;11.448;2024-01-15T01:01:51;10.07;;;6.07;;
19812;SDS011;10066;48.108;11.448;2024-01-15T01:04:18;9.60;;;5.37;;
19812;SDS011;10066;48.108;11.448;2024-01-15T01:06:46;7.33;;;4.03;;
19812;SDS011;10066;48.108;11.448;2024-01-15T01:09:13;5.63;;;3.40;;
19812;SDS011;10066;48.108;11.448;2024-01-15T01:11:40;10.60;;;5.67;;
19812;SDS011;10066;48.108;11.448;2024-01-15T01:14:07;5.47;;;3.57;;
19812;SDS011;10066;48.108;11.448;2024-01-15T01:16:35;15.10;;;5.47;;
19812;SDS011;10066;48.108;11.448;2024-01-15T01:19:04;8.50;;;5.20;;
19812;SDS011;10066;48.108;11.448;2024-01-15T01:21:31;8.07;;;5.10;;
19812;SDS011;10066;48.108;11.448;2024-01-15T01:24:00;11.27;;;5.80;;
19812;SDS011;10066;48.108;11.448;2024-01-15T01:26:27;12.83;;;6.10;;
19812;SDS011;10066;48.108;11.448;2024-01-15T01:28:54;13.13;;;5.47;;
19812;SDS011;10066;48.108;11.448;2024-01-15T01:31:21;12.70;;;6.40;;
19812;SDS011;10066;48.108;11.448;2024-01-15T01:33:49;9.87;;;5.07;;
19812;SDS011;10066;48.108;11.448;2024-01-15T01:36:16;9.83;;;5.53;;
19812;SDS011;10066;48.108;11.448;2024-01-15T01:38:43;9.70;;;5.80;;
19812;SDS011;10066;48.108;11.448;2024-01-15T01:41:12;13.03;;;5.90;;
19812;SDS011;10066;48.108;11.448;2024-01-15T01:43:40;13.07;;;6.80;;
19812;SDS011;10066;48.108;11.448;2024-01-15T01:46:07;13.43;;;6.27;;
19812;SDS011;10066;48.108;11.448;2024-01-15T01:48:34;12.73;;;6.60;;
19812;SDS011;10066;48.108;11.448;2024-01-15T01:51:02;13.80;;;7.83;;
19812;SDS011;10066;48.108;11.448;2024-01-15T01:53:30;14.47;;;6.53;;
19812;SDS011;10066;48.108;11.448;2024-01-15T01:56:00;13.47;;;7.33;;
19812;SDS011;10066;48.108;11.448;2024-01-15T01:58:28;13.17;;;7.03;;
19812;SDS011;10066;48.108;11.448;2024-01-15T02:00:56;12.10;;;6.93;;
19812;SDS011;10066;48.108;11.448;2024-01-15T02:03:25;13.83;;;7.30;;
19812;SDS011;10066;48.108;11.448;2024-01-15T02:05:52;13.50;;;7.53;;
19812;SDS011;10066;48.108;11.448;2024-01-15T02:08:20;11.53;;;6.50;;
19812;SDS011;10066;48.108;11.448;2024-01-15T02:10:47;11.63;;;6.57;;
19812;SDS011;10066;48.108;11.448;2024-01-15T02:13:15;11.63;;;6.30;;
19812;SDS011;10066;48.108;11.448;2024-01-15T02:15:44;11.67;;;7.20;;
19812;SDS011;10066;48.108;11.448;2024-01-15T02:18:12;12.67;;;7.83;;
19812;SDS011;10066;48.108;11.448;2024-01-15T02:20:39;12.43;;;7.20;;
19812;SDS011;10066;48.108;11.448;2024-01-15T02:23:11;12.23;;;6.43;;
19812;SDS011;10066;48.108;11.448;2024-01-15T02:25:39;13.57;;;8.07;;
19812;SDS011;10066;48.108;11.448;2024-01-15T02:28:09;11.83;;;6.87;;
19812;SDS011;10066;48.108;11.448;2024-01-15T02:30:37;9.73;;;4.80;;
19812;SDS011;10066;48.108;11.448;2024-01-15T02:33:05;14.23;;;7.33;;
19812;SDS011;10066;48.108;11.448;2024-01-15T02:35:32;13.80;;;7.43;;
19812;SDS011;10066;48.108;11.448;2024-01-15T02:38:01;14.13;;;7.83;;
19812;SDS011;10066;48.108;11.448;2024-01-15T02:40:30;16.27;;;8.03;;
19812;SDS011;10066;48.108;11.448;2024-01-15T02:42:58;14.10;;;8.00;;
19812;SDS011;10066;48.108;11.448;2024-01-15T02:45:25;13.37;;;6.83;;
19812;SDS011;10066;48.108;11.448;2024-01-15T02:47:52;9.50;;;6.03;;
19812;SDS011;10066;48.108;11.448;2024-01-15T02:50:19;12.60;;;7.83;;
19812;SDS011;10066;48.108;11.448;2024-01-15T02:52:46;12.80;;;7.37;;
19812;SDS011;10066;48.108;11.448;2024-01-15T02:55:13;15.47;;;7.47;;
19812;SDS011;10066;48.108;11.448;2024-01-15T02:57:42;13.33;;;6.97;;
19812;SDS011;10066;48.108;11.448;2024-01-15T03:00:09;13.80;;;7.17;;
19812;SDS011;10066;48.108;11.448;2024-01-15T03:02:37;9.77;;;6.70;;
19812;SDS011;10066;48.108;11.448;2024-01-15T03:05:05;12.90;;;7.20;;
19812;SDS011;10066;48.108;11.448;2024-01-15T03:07:33;12.07;;;7.00;;
19812;SDS011;10066;48.108;11.448;2024-01-15T03:10:00;12.77;;;7.47;;
19812;SDS011;10066;48.108;11.448;2024-01-15T03:12:27;11.97;;;6.73;;
19812;SDS011;10066;48.108;11.448;2024-01-15T03:14:56;10.70;;;5.93;;
19812;SDS011;10066;48.108;11.448;2024-01-15T03:17:23;12.23;;;6.20;;
19812;SDS011;10066;48.108;11.448;2024-01-15T03:19:50;7.07;;;4.60;;
19812;SDS011;10066;48.108;11.448;2024-01-15T03:22:17;12.43;;;6.93;;
19812;SDS011;10066;48.108;11.448;2024-01-15T03:24:44;12.07;;;7.17;;
19812;SDS011;10066;48.108;11.448;2024-01-15T03:27:11;10.63;;;5.43;;
19812;SDS011;10066;48.108;11.448;2024-01-15T03:29:39;10.77;;;6.30;;
19812;SDS011;10066;48.108;11.448;2024-01-15T03:32:07;11.03;;;6.27;;
19812;SDS011;10066;48.108;11.448;2024-01-15T03:34:34;10.67;;;6.27;;
19812;SDS011;10066;48.108;11.448;2024-01-15T03:37:01;12.10;;;5.83;;
19812;SDS011;10066;48.108;11.448;2024-01-15T03:39:28;11.47;;;6.67;;
19812;SDS011;10066;48.108;11.448;2024-01-15T03:41:55;11.00;;;5.90;;
19812;SDS011;10066;48.108;11.448;2024-01-15T03:44:22;13.17;;;6.23;;
19812;SDS011;10066;48.108;11.448;2024-01-15T03:46:49;10.57;;;6.13;;
19812;SDS011;10066;48.108;11.448;2024-01-15T03:49:18;12.13;;;6.40;;
19812;SDS011;10066;48.108;11.448;2024-01-15T03:51:45;12.53;;;5.87;;
19812;SDS011;10066;48.108;11.448;2024-01-15T03:54:12;13.17;;;5.73;;
19812;SDS011;10066;48.108;11.448;2024-01-15T03:56:39;10.70;;;5.77;;
19812;SDS011;10066;48.108;11.448;2024-01-15T03:59:06;10.67;;;6.40;;
19812;SDS011;10066;48.108;11.448;2024-01-15T04:01:33;10.10;;;5.77;;
19812;SDS011;10066;48.108;11.448;2024-01-15T04:04:00;9.07;;;5.33;;
19812;SDS011;10066;48.108;11.448;2024-01-15T04:06:28;11.23;;;6.20;;
19812;SDS011;10066;48.108;11.448;2024-01-15T04:08:55;9.40;;;5.43;;
19812;SDS011;10066;48.108;11.448;2024-01-15T04:11:22;10.87;;;5.67;;
19812;SDS011;10066;48.108;11.448;2024-01-15T04:13:49;7.77;;;4.73;;
19812;SDS011;10066;48.108;11.448;2024-01-15T04:16:16;9.77;;;5.37;;
19812;SDS011;10066;48.108;11.448;2024-01-15T04:18:44;9.20;;;5.60;;
19812;SDS011;10066;48.108;11.448;2024-01-15T04:21:11;10.97;;;5.50;;
19812;SDS011;10066;48.108;11.448;2024-01-15T04:23:40;9.00;;;5.50;;
19812;SDS011;10066;48.108;11.448;2024-01-15T04:26:07;10.73;;;6.10;;
19812;SDS011;10066;48.108;11.448;2024-01-15T04:28:34;7.63;;;4.50;;
19812;SDS011;10066;48.108;11.448;2024-01-15T04:31:00;8.73;;;4.70;;
19812;SDS011;10066;48.108;11.448;2024-01-15T04:33:27;8.67;;;4.40;;
19812;SDS011;10066;48.108;11.448;2024-01-15T04:35:54;8.87;;;5.50;;
19812;SDS011;10066;48.108;11.448;2024-01-15T04:38:21;11.13;;;5.33;;
19812;SDS011;10066;48.108;11.448;2024-01-15T04:40:50;10.70;;;5.37;;
19812;SDS011;10066;48.108;11.448;2024-01-15T04:43:17;8.57;;;5.10;;
19812;SDS011;10066;48.108;11.448;2024-01-15T04:45:44;7.97;;;4.83;;
19812;SDS011;10066;48.108;11.448;2024-01-15T04:48:11;7.20;;;4.27;;
19812;SDS011;10066;48.108;11.448;2024-01-15T04:50:38;8.17;;;5.80;;
19812;SDS011;10066;48.108;11.448;2024-01-15T04:53:05;8.00;;;4.87;;
19812;SDS011;10066;48.108;11.448;2024-01-15T04:55:32;7.63;;;5.03;;
19812;SDS011;10066;48.108;11.448;2024-01-15T04:58:00;8.20;;;4.90;;
19812;SDS011;10066;48.108;11.448;2024-01-15T05:00:27;9.07;;;5.33;;
19812;SDS011;10066;48.108;11.448;2024-01-15T05:02:54;8.47;;;5.23;;
19812;SDS011;10066;48.108;11.448;2024-01-15T05:05:21;7.17;;;4.70;;
19812;SDS011;10066;48.108;11.448;2024-01-15T05:07:48;5.57;;;3.47;;
19812;SDS011;10066;48.108;11.448;2024-01-15T05:10:15;9.20;;;4.73;;
19812;SDS011;10066;48.108;11.448;2024-01-15T05:12:42;10.10;;;5.93;;
19812;SDS011;10066;48.108;11.448;2024-01-15T05:15:10;5.90;;;3.30;;
19812;SDS011;10066;48.108;11.448;2024-01-15T05:17:37;8.57;;;4.97;;
19812;SDS011;10066;48.108;11.448;2024-01-15T05:20:05;9.00;;;4.37;;
19812;SDS011;10066;48.108;11.448;2024-01-15T05:22:32;9.00;;;4.53;;
19812;SDS011;10066;48.108;11.448;2024-01-15T05:24:59;7.27;;;3.87;;
19812;SDS011;10066;48.108;11.448;2024-01-15T05:27:26;7.43;;;4.40;;
19812;SDS011;10066;48.108;11.448;2024-01-15T05:29:53;8.13;;;4.73;;
19812;SDS011;10066;48.108;11.448;2024-01-15T05:32:22;7.83;;;4.70;;
19812;SDS011;10066;48.108;11.448;2024-01-15T05:34:49;8.17;;;4.77;;
19812;SDS011;10066;48.108;11.448;2024-01-15T05:37:16;6.33;;;3.97;;
19812;SDS011;10066;48.108;11.448;2024-01-15T05:39:43;7.03;;;3.77;;
19812;SDS011;10066;48.108;11.448;2024-01-15T05:42:10;6.60;;;4.33;;
19812;SDS011;10066;48.108;11.448;2024-01-15T05:44:36;6.50;;;3.97;;
19812;SDS011;10066;48.108;11.448;2024-01-15T05:47:03;9.53;;;4.50;;
19812;SDS011;10066;48.108;11.448;2024-01-15T05:49:32;6.00;;;4.03;;
19812;SDS011;10066;48.108;11.448;2024-01-15T05:51:59;9.37;;;3.57;;
19812;SDS011;10066;48.108;11.448;2024-01-15T05:54:26;8.27;;;4.60;;
19812;SDS011;10066;48.108;11.448;2024-01-15T05:56:53;9.53;;;5.43;;
19812;SDS011;10066;48.108;11.448;2024-01-15T05:59:20;7.27;;;4.50;;
19812;SDS011;10066;48.108;11.448;2024-01-15T06:01:47;11.03;;;5.47;;
19812;SDS011;10066;48.108;11.448;2024-01-15T06:04:14;7.10;;;4.43;;
19812;SDS011;10066;48.108;11.448;2024-01-15T06:06:42;8.07;;;4.13;;
19812;SDS011;10066;48.108;11.448;2024-01-15T06:09:09;7.23;;;4.30;;
19812;SDS011;10066;48.108;11.448;2024-01-15T06:11:36;7.87;;;4.40;;
19812;SDS011;10066;48.108;11.448;2024-01-15T06:14:03;5.80;;;3.90;;
19812;SDS011;10066;48.108;11.448;2024-01-15T06:16:30;9.13;;;4.70;;
19812;SDS011;10066;48.108;11.448;2024-01-15T06:18:57;5.50;;;3.67;;
19812;SDS011;10066;48.108;11.448;2024-01-15T06:21:24;8.10;;;4.70;;
19812;SDS011;10066;48.108;11.448;2024-01-15T06:23:52;8.00;;;4.07;;
19812;SDS011;10066;48.108;11.448;2024-01-15T06:26:21;7.97;;;4.13;;
19812;SDS011;10066;48.108;11.448;2024-01-15T06:28:48;9.60;;;4.80;;
19812;SDS011;10066;48.108;11.448;2024-01-15T06:31:15;8.20;;;4.20;;
19812;SDS011;10066;48.108;11.448;2024-01-15T06:33:42;8.57;;;4.70;;
19812;SDS011;10066;48.108;11.448;2024-01-15T06:36:12;5.57;;;3.47;;
19812;SDS011;10066;48.108;11.448;2024-01-15T06:38:39;7.93;;;4.30;;
19812;SDS011;10066;48.108;11.448;2024-01-15T06:41:07;7.77;;;4.73;;
19812;SDS011;10066;48.108;11.448;2024-01-15T06:43:34;7.57;;;4.23;;
19812;SDS011;10066;48.108;11.448;2024-01-15T06:46:02;9.80;;;4.03;;
19812;SDS011;10066;48.108;11.448;2024-01-15T06:48:29;6.47;;;3.67;;
19812;SDS011;10066;48.108;11.448;2024-01-15T06:50:56;8.27;;;4.67;;
19812;SDS011;10066;48.108;11.448;2024-01-15T06:53:23;8.13;;;4.50;;
19812;SDS011;10066;48.108;11.448;2024-01-15T06:55:50;9.40;;;4.57;;
19812;SDS011;10066;48.108;11.448;2024-01-15T06:58:18;7.37;;;3.90;;
19812;SDS011;10066;48.108;11.448;2024-01-15T07:00:45;8.17;;;2.97;;
19812;SDS011;10066;48.108;11.448;2024-01-15T07:03:13;7.53;;;4.30;;
19812;SDS011;10066;48.108;11.448;2024-01-15T07:05:39;9.13;;;4.17;;
19812;SDS011;10066;48.108;11.448;2024-01-15T07:08:06;6.27;;;4.13;;
19812;SDS011;10066;48.108;11.448;2024-01-15T07:10:33;7.07;;;3.97;;
19812;SDS011;10066;48.108;11.448;2024-01-15T07:13:00;7.67;;;3.70;;
19812;SDS011;10066;48.108;11.448;2024-01-15T07:15:29;11.70;;;4.33;;
19812;SDS011;10066;48.108;11.448;2024-01-15T07:17:56;14.60;;;5.10;;
19812;SDS011;10066;48.108;11.448;2024-01-15T07:20:23;13.93;;;4.70;;
19812;SDS011;10066;48.108;11.448;2024-01-15T07:22:50;10.50;;;4.43;;
19812;SDS011;10066;48.108;11.448;2024-01-15T07:25:17;9.13;;;3.90;;
19812;SDS011;10066;48.108;11.448;2024-01-15T07:27:44;8.00;;;3.93;;
19812;SDS011;10066;48.108;11.448;2024-01-15T07:30:12;8.80;;;4.60;;
19812;SDS011;10066;48.108;11.448;2024-01-15T07:32:41;7.60;;;4.33;;
19812;SDS011;10066;48.108;11.448;2024-01-15T07:35:08;7.57;;;4.20;;
19812;SDS011;10066;48.108;11.448;2024-01-15T07:37:35;8.50;;;4.17;;
19812;SDS011;10066;48.108;11.448;2024-01-15T07:40:02;10.00;;;4.47;;
19812;SDS011;10066;48.108;11.448;2024-01-15T07:42:31;7.40;;;4.27;;
19812;SDS011;10066;48.108;11.448;2024-01-15T07:44:58;8.17;;;4.60;;
19812;SDS011;10066;48.108;11.448;2024-01-15T07:47:25;8.30;;;4.40;;
19812;SDS011;10066;48.108;11.448;2024-01-15T07:49:54;7.23;;;4.60;;
19812;SDS011;10066;48.108;11.448;2024-01-15T07:52:21;8.07;;;4.40;;
19812;SDS011;10066;48.108;11.448;2024-01-15T07:54:48;8.00;;;4.70;;
19812;SDS011;10066;48.108;11.448;2024-01-15T07:57:17;7.67;;;4.27;;
19812;SDS011;10066;48.108;11.448;2024-01-15T07:59:44;7.63;;;4.47;;
19812;SDS011;10066;48.108;11.448;2024-01-15T08:02:11;7.80;;;5.10;;
19812;SDS011;10066;48.108;11.448;2024-01-15T08:04:38;11.33;;;4.70;;
19812;SDS011;10066;48.108;11.448;2024-01-15T08:07:06;8.70;;;4.73;;
19812;SDS011;10066;48.108;11.448;2024-01-15T08:09:34;9.73;;;4.73;;
19812;SDS011;10066;48.108;11.448;2024-01-15T08:12:00;7.97;;;4.67;;
19812;SDS011;10066;48.108;11.448;2024-01-15T08:14:27;9.33;;;5.20;;
19812;SDS011;10066;48.108;11.448;2024-01-15T08:16:54;8.33;;;4.43;;
19812;SDS011;10066;48.108;11.448;2024-01-15T08:19:21;7.73;;;4.63;;
19812;SDS011;10066;48.108;11.448;2024-01-15T08:21:48;8.87;;;4.43;;
19812;SDS011;10066;48.108;11.448;2024-01-15T08:24:17;8.93;;;5.17;;
19812;SDS011;10066;48.108;11.448;2024-01-15T08:26:44;7.07;;;4.57;;
19812;SDS011;10066;48.108;11.448;2024-01-15T08:29:11;8.07;;;4.83;;
19812;SDS011;10066;48.108;11.448;2024-01-15T08:31:38;6.77;;;4.03;;
19812;SDS011;10066;48.108;11.448;2024-01-15T08:34:05;9.67;;;4.87;;
19812;SDS011;10066;48.108;11.448;2024-01-15T08:36:33;10.43;;;4.90;;
19812;SDS011;10066;48.108;11.448;2024-01-15T08:39:01;8.83;;;4.57;;
19812;SDS011;10066;48.108;11.448;2024-01-15T08:41:31;8.87;;;4.50;;
19812;SDS011;10066;48.108;11.448;2024-01-15T08:43:58;8.13;;;4.30;;
19812;SDS011;10066;48.108;11.448;2024-01-15T08:46:25;8.03;;;4.50;;
19812;SDS011;10066;48.108;11.448;2024-01-15T08:48:52;6.63;;;3.80;;
19812;SDS011;10066;48.108;11.448;2024-01-15T08:51:19;6.77;;;3.93;;
19812;SDS011;10066;48.108;11.448;2024-01-15T08:53:46;9.90;;;4.50;;
19812;SDS011;10066;48.108;11.448;2024-01-15T08:56:13;8.03;;;4.70;;
19812;SDS011;10066;48.108;11.448;2024-01-15T08:58:42;7.70;;;4.57;;
19812;SDS011;10066;48.108;11.448;2024-01-15T09:01:11;9.00;;;5.20;;
19812;SDS011;10066;48.108;11.448;2024-01-15T09:03:38;8.37;;;4.30;;
19812;SDS011;10066;48.108;11.448;2024-01-15T09:06:07;7.93;;;4.73;;
19812;SDS011;10066;48.108;11.448;2024-01-15T09:08:34;7.83;;;4.70;;
19812;SDS011;10066;48.108;11.448;2024-01-15T09:11:02;7.80;;;4.47;;
19812;SDS011;10066;48.108;11.448;2024-01-15T09:13:29;8.20;;;5.70;;
19812;SDS011;10066;48.108;11.448;2024-01-15T09:15:58;9.03;;;4.87;;
19812;SDS011;10066;48.108;11.448;2024-01-15T09:18:26;8.40;;;4.97;;
19812;SDS011;10066;48.108;11.448;2024-01-15T09:20:53;7.37;;;4.60;;
19812;SDS011;10066;48.108;11.448;2024-01-15T09:23:20;8.73;;;4.77;;
19812;SDS011;10066;48.108;11.448;2024-01-15T09:25:47;7.37;;;4.73;;
19812;SDS011;10066;48.108;11.448;2024-01-15T09:28:14;8.40;;;4.37;;
19812;SDS011;10066;48.108;11.448;2024-01-15T09:30:41;8.33;;;4.67;;
19812;SDS011;10066;48.108;11.448;2024-01-15T09:33:11;6.30;;;3.90;;
19812;SDS011;10066;48.108;11.448;2024-01-15T09:35:38;8.10;;;4.60;;
19812;SDS011;10066;48.108;11.448;2024-01-15T09:38:05;9.20;;;4.60;;
19812;SDS011;10066;48.108;11.448;2024-01-15T09:40:32;6.43;;;3.60;;
19812;SDS011;10066;48.108;11.448;2024-01-15T09:43:00;7.57;;;4.57;;
19812;SDS011;10066;48.108;11.448;2024-01-15T09:45:28;8.43;;;4.30;;
19812;SDS011;10066;48.108;11.448;2024-01-15T09:47:55;5.80;;;3.57;;
19812;SDS011;10066;48.108;11.448;2024-01-15T09:50:24;7.80;;;4.27;;
19812;SDS011;10066;48.108;11.448;2024-01-15T09:52:51;8.00;;;4.17;;
19812;SDS011;10066;48.108;11.448;2024-01-15T09:55:19;6.50;;;3.90;;
19812;SDS011;10066;48.108;11.448;2024-01-15T09:57:46;6.07;;;3.57;;
19812;SDS011;10066;48.108;11.448;2024-01-15T10:00:14;7.60;;;4.40;;
19812;SDS011;10066;48.108;11.448;2024-01-15T10:02:44;6.67;;;3.60;;
19812;SDS011;10066;48.108;11.448;2024-01-15T10:05:11;7.70;;;3.73;;
19812;SDS011;10066;48.108;11.448;2024-01-15T10:07:40;8.63;;;3.50;;
19812;SDS011;10066;48.108;11.448;2024-01-15T10:10:07;5.97;;;3.97;;
19812;SDS011;10066;48.108;11.448;2024-01-15T10:12:36;6.80;;;3.93;;
19812;SDS011;10066;48.108;11.448;2024-01-15T10:15:04;7.80;;;3.90;;
19812;SDS011;10066;48.108;11.448;2024-01-15T10:17:32;5.70;;;3.53;;
19812;SDS011;10066;48.108;11.448;2024-01-15T10:19:59;5.23;;;3.23;;
19812;SDS011;10066;48.108;11.448;2024-01-15T10:22:26;6.03;;;3.40;;
19812;SDS011;10066;48.108;11.448;2024-01-15T10:24:55;6.33;;;3.40;;
19812;SDS011;10066;48.108;11.448;2024-01-15T10:27:23;6.30;;;3.60;;
19812;SDS011;10066;48.108;11.448;2024-01-15T10:29:50;5.37;;;3.10;;
19812;SDS011;10066;48.108;11.448;2024-01-15T10:32:19;4.83;;;2.90;;
19812;SDS011;10066;48.108;11.448;2024-01-15T10:34:49;6.67;;;3.83;;
19812;SDS011;10066;48.108;11.448;2024-01-15T10:37:19;5.67;;;3.10;;
19812;SDS011;10066;48.108;11.448;2024-01-15T10:39:46;7.63;;;3.33;;
19812;SDS011;10066;48.108;11.448;2024-01-15T10:42:15;5.60;;;3.17;;
19812;SDS011;10066;48.108;11.448;2024-01-15T10:44:43;6.40;;;3.10;;
19812;SDS011;10066;48.108;11.448;2024-01-15T10:47:11;4.73;;;2.50;;
19812;SDS011;10066;48.108;11.448;2024-01-15T10:49:39;5.67;;;3.10;;
19812;SDS011;10066;48.108;11.448;2024-01-15T10:52:06;4.10;;;2.57;;
19812;SDS011;10066;48.108;11.448;2024-01-15T10:54:33;4.90;;;2.77;;
19812;SDS011;10066;48.108;11.448;2024-01-15T10:57:01;3.67;;;2.30;;
19812;SDS011;10066;48.108;11.448;2024-01-15T10:59:31;3.97;;;2.43;;
19812;SDS011;10066;48.108;11.448;2024-01-15T11:01:59;3.70;;;2.20;;
19812;SDS011;10066;48.108;11.448;2024-01-15T11:04:26;3.10;;;2.57;;
19812;SDS011;10066;48.108;11.448;2024-01-15T11:06:54;4.23;;;2.67;;
19812;SDS011;10066;48.108;11.448;2024-01-15T11:09:22;5.37;;;3.20;;
19812;SDS011;10066;48.108;11.448;2024-01-15T11:11:52;5.83;;;2.80;;
19812;SDS011;10066;48.108;11.448;2024-01-15T11:14:38;5.77;;;3.20;;
19812;SDS011;10066;48.108;11.448;2024-01-15T11:17:07;4.53;;;2.73;;
19812;SDS011;10066;48.108;11.448;2024-01-15T11:19:35;5.90;;;2.90;;
19812;SDS011;10066;48.108;11.448;2024-01-15T11:22:05;5.43;;;3.20;;
19812;SDS011;10066;48.108;11.448;2024-01-15T11:24:34;4.43;;;2.60;;
19812;SDS011;10066;48.108;11.448;2024-01-15T11:27:02;4.50;;;2.50;;
19812;SDS011;10066;48.108;11.448;2024-01-15T11:29:30;4.70;;;2.87;;
19812;SDS011;10066;48.108;11.448;2024-01-15T11:32:02;3.23;;;2.20;;
19812;SDS011;10066;48.108;11.448;2024-01-15T11:34:49;3.33;;;2.10;;
19812;SDS011;10066;48.108;11.448;2024-01-15T11:37:17;3.90;;;2.57;;
19812;SDS011;10066;48.108;11.448;2024-01-15T11:39:44;3.63;;;2.20;;
19812;SDS011;10066;48.108;11.448;2024-01-15T11:42:13;4.30;;;2.57;;
19812;SDS011;10066;48.108;11.448;2024-01-15T11:44:41;7.33;;;2.80;;
19812;SDS011;10066;48.108;11.448;2024-01-15T11:47:10;3.33;;;2.20;;
19812;SDS011;10066;48.108;11.448;2024-01-15T11:49:45;4.70;;;2.70;;
19812;SDS011;10066;48.108;11.448;2024-01-15T11:52:26;4.27;;;2.30;;
19812;SDS011;10066;48.108;11.448;2024-01-15T11:55:00;4.90;;;2.57;;
19812;SDS011;10066;48.108;11.448;2024-01-15T11:57:34;3.97;;;2.23;;
19812;SDS011;10066;48.108;11.448;2024-01-15T12:00:07;2.57;;;1.77;;
19812;SDS011;10066;48.108;11.448;2024-01-15T12:02:37;5.73;;;2.07;;
19812;SDS011;10066;48.108;11.448;2024-01-15T12:05:04;4.27;;;2.30;;
19812;SDS011;10066;48.108;11.448;2024-01-15T12:07:32;3.00;;;1.87;;
19812;SDS011;10066;48.108;11.448;2024-01-15T12:09:59;3.40;;;2.10;;
19812;SDS011;10066;48.108;11.448;2024-01-15T12:12:29;4.90;;;2.50;;
19812;SDS011;10066;48.108;11.448;2024-01-15T12:15:04;4.60;;;2.00;;
19812;SDS011;10066;48.108;11.448;2024-01-15T12:17:31;2.63;;;1.83;;
19812;SDS011;10066;48.108;11.448;2024-01-15T12:20:00;3.13;;;1.90;;
19812;SDS011;10066;48.108;11.448;2024-01-15T12:22:27;3.73;;;1.97;;
19812;SDS011;10066;48.108;11.448;2024-01-15T12:24:54;3.57;;;1.97;;
19812;SDS011;10066;48.108;11.448;2024-01-15T12:27:22;4.77;;;1.97;;
19812;SDS011;10066;48.108;11.448;2024-01-15T12:29:50;3.80;;;2.10;;
19812;SDS011;10066;48.108;11.448;2024-01-15T12:32:19;4.43;;;2.30;;
19812;SDS011;10066;48.108;11.448;2024-01-15T12:34:48;4.33;;;2.40;;
19812;SDS011;10066;48.108;11.448;2024-01-15T12:37:19;3.17;;;1.97;;
19812;SDS011;10066;48.108;11.448;2024-01-15T12:39:49;3.93;;;2.50;;
19812;SDS011;10066;48.108;11.448;2024-01-15T12:42:20;4.13;;;2.43;;
19812;SDS011;10066;48.108;11.448;2024-01-15T12:44:48;4.63;;;2.33;;
19812;SDS011;10066;48.108;11.448;2024-01-15T12:47:15;4.97;;;2.33;;
19812;SDS011;10066;48.108;11.448;2024-01-15T12:49:46;2.80;;;1.77;;
19812;SDS011;10066;48.108;11.448;2024-01-15T12:52:15;3.63;;;2.37;;
19812;SDS011;10066;48.108;11.448;2024-01-15T12:54:43;3.20;;;2.13;;
19812;SDS011;10066;48.108;11.448;2024-01-15T12:57:10;3.43;;;2.07;;
19812;SDS011;10066;48.108;11.448;2024-01-15T12:59:37;2.77;;;1.83;;
19812;SDS011;10066;48.108;11.448;2024-01-15T13:02:05;4.10;;;2.00;;
19812;SDS011;10066;48.108;11.448;2024-01-15T13:04:32;3.03;;;2.33;;
19812;SDS011;10066;48.108;11.448;2024-01-15T13:06:59;3.17;;;2.10;;
19812;SDS011;10066;48.108;11.448;2024-01-15T13:09:26;2.90;;;1.80;;
19812;SDS011;10066;48.108;11.448;2024-01-15T13:11:56;3.00;;;1.80;;
19812;SDS011;10066;48.108;11.448;2024-01-15T13:14:23;2.70;;;1.80;;
19812;SDS011;10066;48.108;11.448;2024-01-15T13:16:50;4.17;;;2.10;;
19812;SDS011;10066;48.108;11.448;2024-01-15T13:19:17;3.13;;;2.20;;
19812;SDS011;10066;48.108;11.448;2024-01-15T13:21:44;3.10;;;2.30;;
19812;SDS011;10066;48.108;11.448;2024-01-15T13:24:11;5.13;;;2.60;;
19812;SDS011;10066;48.108;11.448;2024-01-15T13:26:39;6.73;;;2.90;;
19812;SDS011;10066;48.108;11.448;2024-01-15T13:29:07;3.93;;;2.57;;
19812;SDS011;10066;48.108;11.448;2024-01-15T13:31:34;2.80;;;2.20;;
19812;SDS011;10066;48.108;11.448;2024-01-15T13:34:01;6.27;;;2.90;;
19812;SDS011;10066;48.108;11.448;2024-01-15T13:36:28;6.43;;;2.80;;
19812;SDS011;10066;48.108;11.448;2024-01-15T13:38:55;3.10;;;2.40;;
19812;SDS011;10066;48.108;11.448;2024-01-15T13:41:24;5.33;;;2.30;;
19812;SDS011;10066;48.108;11.448;2024-01-15T13:43:53;3.57;;;2.27;;
19812;SDS011;10066;48.108;11.448;2024-01-15T13:46:22;5.40;;;2.63;;
19812;SDS011;10066;48.108;11.448;2024-01-15T13:48:51;3.90;;;2.30;;
19812;SDS011;10066;48.108;11.448;2024-01-15T13:51:18;3.97;;;2.73;;
19812;SDS011;10066;48.108;11.448;2024-01-15T13:53:46;6.10;;;2.60;;
19812;SDS011;10066;48.108;11.448;2024-01-15T13:56:13;4.37;;;2.40;;
19812;SDS011;10066;48.108;11.448;2024-01-15T13:58:41;3.90;;;2.47;;
19812;SDS011;10066;48.108;11.448;2024-01-15T14:01:08;3.83;;;2.47;;
19812;SDS011;10066;48.108;11.448;2024-01-15T14:03:37;3.83;;;2.57;;
19812;SDS011;10066;48.108;11.448;2024-01-15T14:06:04;5.90;;;2.40;;
19812;SDS011;10066;48.108;11.448;2024-01-15T14:08:33;3.80;;;2.57;;
19812;SDS011;10066;48.108;11.448;2024-01-15T14:11:01;5.53;;;3.00;;
19812;SDS011;10066;48.108;11.448;2024-01-15T14:13:28;5.83;;;2.87;;
19812;SDS011;10066;48.108;11.448;2024-01-15T14:15:55;7.30;;;3.10;;
19812;SDS011;10066;48.108;11.448;2024-01-15T14:18:22;3.60;;;2.47;;
19812;SDS011;10066;48.108;11.448;2024-01-15T14:20:51;4.50;;;2.30;;
19812;SDS011;10066;48.108;11.448;2024-01-15T14:23:18;4.93;;;2.60;;
19812;SDS011;10066;48.108;11.448;2024-01-15T14:25:45;4.87;;;2.50;;
19812;SDS011;10066;48.108;11.448;2024-01-15T14:28:12;4.20;;;2.90;;
19812;SDS011;10066;48.108;11.448;2024-01-15T14:30:39;4.47;;;2.60;;
19812;SDS011;10066;48.108;11.448;2024-01-15T14:33:06;4.23;;;2.60;;